Time;durP1;ratioP1;P1;durP2;ratioP2;P2;SDS_P1;SDS_P2;PMS_P1;PMS_P2;Temp;Humidity;BMP_temperature;BMP_pressure;BME280_temperature;BME280_humidity;BME280_pressure;Samples;Min_cycle;Max_cycle;Signal;HPM_P1;HPM_P2
2022/04/11 00:00:31;;;;;;;6.45;3.20;;;;;;;;;;4993346;28;20058;-61
2022/04/11 00:02:58;;;;;;;5.60;2.97;;;;;;;;;;4993280;28;20129;-61
2022/04/11 00:05:24;;;;;;;7.07;3.15;;;;;;;;;;4993160;28;20509;-62
2022/04/11 00:07:50;;;;;;;5.32;3.17;;;;;;;;;;4992778;28;20089;-61
2022/04/11 00:10:16;;;;;;;6.57;3.10;;;2.00;99.90;;;;;;4993851;28;20046;-61
2022/04/11 00:12:42;;;;;;;8.30;3.22;;;1.50;99.90;;;;;;4993560;28;20043;-62
2022/04/11 00:15:08;;;;;;;6.78;3.28;;;1.90;99.90;;;;;;4975594;28;20050;-61
2022/04/11 00:17:35;;;;;;;10.07;3.50;;;1.70;99.90;;;;;;4992550;28;20167;-61
2022/04/11 00:20:01;;;;;;;9.27;3.70;;;1.40;99.90;;;;;;4993235;28;20046;-62
2022/04/11 00:22:27;;;;;;;7.80;3.78;;;;;;;;;;4992866;28;20058;-61
2022/04/11 00:24:53;;;;;;;6.47;3.45;;;2.30;99.90;;;;;;4992834;28;20054;-61
2022/04/11 00:27:19;;;;;;;10.20;3.90;;;;;;;;;;4991508;28;20104;-61
2022/04/11 00:29:45;;;;;;;8.00;3.85;;;;;;;;;;4992950;28;20050;-62
2022/04/11 00:32:11;;;;;;;6.85;3.63;;;1.80;99.90;;;;;;4992485;28;20049;-61
2022/04/11 00:34:37;;;;;;;9.98;3.60;;;1.30;99.90;;;;;;4992807;28;20394;-61
2022/04/11 00:37:03;;;;;;;6.90;3.40;;;;;;;;;;4992413;28;20099;-61
2022/04/11 00:39:29;;;;;;;9.18;3.70;;;;;;;;;;4992441;28;20141;-61
2022/04/11 00:41:55;;;;;;;7.82;3.85;;;;;;;;;;4959445;28;20573;-61
2022/04/11 00:44:21;;;;;;;6.03;3.67;;;;;;;;;;4974836;28;20451;-61
2022/04/11 00:46:48;;;;;;;6.80;3.70;;;;;;;;;;4992941;28;20406;-61
2022/04/11 00:49:13;;;;;;;7.18;3.47;;;1.90;99.90;;;;;;4975257;28;20461;-62
2022/04/11 00:51:40;;;;;;;5.43;3.20;;;1.80;99.90;;;;;;4974427;28;20042;-61
2022/04/11 00:54:08;;;;;;;8.40;3.28;;;1.00;99.90;;;;;;4992421;28;20050;-61
2022/04/11 00:56:35;;;;;;;6.38;3.63;;;1.90;99.90;;;;;;4992254;28;20039;-61
2022/04/11 00:59:02;;;;;;;7.00;3.53;;;;;;;;;;4992077;28;20044;-61
2022/04/11 01:01:28;;;;;;;9.43;3.47;;;2.60;99.90;;;;;;4994042;28;20550;-61
2022/04/11 01:03:54;;;;;;;7.93;3.55;;;1.60;99.90;;;;;;4986014;28;20157;-61
2022/04/11 01:06:20;;;;;;;9.77;3.90;;;;;;;;;;5011454;28;20454;-61
2022/04/11 01:08:46;;;;;;;7.70;3.65;;;;;;;;;;5011447;28;20045;-61
2022/04/11 01:11:11;;;;;;;7.22;3.47;;;1.70;99.90;;;;;;4994256;28;20394;-61
2022/04/11 01:13:37;;;;;;;6.00;3.55;;;;;;;;;;5011324;28;20046;-62
2022/04/11 01:16:04;;;;;;;6.80;3.50;;;1.60;99.90;;;;;;5011317;28;20050;-61
2022/04/11 01:18:37;;;;;;;7.00;3.65;;;1.60;99.90;;;;;;5010970;28;20155;-61
2022/04/11 01:21:06;;;;;;;9.05;3.30;;;1.80;99.90;;;;;;4993707;28;20057;-61
2022/04/11 01:23:31;;;;;;;16.38;3.90;;;1.70;99.90;;;;;;5011671;28;20077;-61
2022/04/11 01:25:57;;;;;;;7.78;3.60;;;;;;;;;;5011272;28;20581;-61
2022/04/11 01:28:23;;;;;;;9.07;3.58;;;1.50;99.90;;;;;;5010864;28;20051;-61
2022/04/11 01:30:54;;;;;;;7.38;3.45;;;1.40;99.90;;;;;;5011941;28;20137;-61
2022/04/11 01:33:20;;;;;;;9.20;3.60;;;;;;;;;;5011376;28;20086;-61
2022/04/11 01:35:49;;;;;;;9.63;3.72;;;;;;;;;;4993035;28;20052;-61
2022/04/11 01:38:15;;;;;;;6.20;3.50;;;1.30;99.90;;;;;;4992795;28;20338;-61
2022/04/11 01:40:51;;;;;;;11.70;3.83;;;1.50;99.90;;;;;;5011054;28;20046;-61
2022/04/11 01:43:17;;;;;;;;;;;3.40;99.90;;;;;;5011801;28;20540;-62
2022/04/11 01:45:43;;;;;;;6.77;3.47;;;2.50;99.90;;;;;;5010835;28;19965;-61
2022/04/11 01:48:09;;;;;;;9.50;3.60;;;1.20;99.90;;;;;;4993112;28;20481;-61
2022/04/11 01:50:35;;;;;;;7.72;3.75;;;;;;;;;;4993377;28;20076;-62
2022/04/11 01:53:08;;;;;;;7.05;3.58;;;1.50;99.90;;;;;;4993582;28;20109;-61
2022/04/11 01:55:35;;;;;;;6.05;3.50;;;;;;;;;;5010587;28;20155;-61
2022/04/11 01:58:05;;;;;;;8.32;3.80;;;1.40;99.90;;;;;;5010874;28;20073;-61
2022/04/11 02:00:32;;;;;;;6.68;3.78;;;1.60;99.90;;;;;;5010367;28;20049;-61
2022/04/11 02:02:59;;;;;;;13.00;3.83;;;3.50;99.90;;;;;;5010744;28;20128;-61
2022/04/11 02:05:26;;;;;;;7.57;4.13;;;0.10;99.90;;;;;;5010471;28;20579;-60
2022/04/11 02:07:52;;;;;;;7.45;4.13;;;2.60;99.90;;;;;;5010558;28;20041;-61
2022/04/11 02:10:18;;;;;;;13.32;4.18;;;;;;;;;;5009850;28;20046;-61
2022/04/11 02:12:44;;;;;;;8.45;4.30;;;;;;;;;;4992919;28;20120;-61
2022/04/11 02:15:11;;;;;;;30.90;6.03;;;1.50;99.90;;;;;;5010828;28;20421;-61
2022/04/11 02:17:37;;;;;;;6.60;4.22;;;;;;;;;;5010254;28;20112;-61
2022/04/11 02:20:05;;;;;;;8.43;4.20;;;1.40;99.90;;;;;;4992486;28;20042;-61
2022/04/11 02:22:57;;;;;;;8.43;4.03;;;1.50;99.90;;;;;;4992800;28;20057;-61
2022/04/11 02:25:25;;;;;;;9.07;4.65;;;1.50;99.90;;;;;;5010297;28;20511;-61
2022/04/11 02:27:51;;;;;;;8.85;4.38;;;1.50;99.90;;;;;;5010142;28;20129;-61
2022/04/11 02:30:18;;;;;;;12.93;4.60;;;1.60;99.90;;;;;;5010605;28;20049;-61
2022/04/11 02:32:44;;;;;;;9.23;4.65;;;1.50;99.90;;;;;;5009855;28;20354;-61
2022/04/11 02:35:11;;;;;;;9.52;5.13;;;;;;;;;;5010065;28;20088;-61
2022/04/11 02:37:37;;;;;;;8.93;4.80;;;1.70;99.90;;;;;;4992536;28;20050;-61
2022/04/11 02:40:05;;;;;;;11.65;4.70;;;1.60;99.90;;;;;;5010325;28;20045;-61
2022/04/11 02:42:31;;;;;;;10.00;4.70;;;;;;;;;;5009762;28;20050;-61
2022/04/11 02:44:57;;;;;;;10.75;4.88;;;;;;;;;;5010087;28;20054;-61
2022/04/11 02:47:23;;;;;;;8.80;4.45;;;;;;;;;;5009731;28;20056;-61
2022/04/11 02:49:50;;;;;;;7.78;4.43;;;;;;;;;;4991534;28;20060;-61
2022/04/11 02:52:16;;;;;;;7.78;4.82;;;2.50;99.90;;;;;;5009809;28;20085;-61
2022/04/11 02:54:42;;;;;;;8.38;4.70;;;;;;;;;;5010519;28;20080;-61
2022/04/11 02:57:08;;;;;;;10.35;4.88;;;1.60;99.90;;;;;;5010027;28;20049;-61
2022/04/11 02:59:38;;;;;;;9.75;4.85;;;1.60;99.90;;;;;;5009742;28;20050;-61
2022/04/11 03:02:04;;;;;;;8.82;4.82;;;3.10;99.90;;;;;;5008906;28;20053;-61
2022/04/11 03:04:30;;;;;;;11.75;5.13;;;1.70;99.90;;;;;;5009666;28;20445;-62
2022/04/11 03:06:57;;;;;;;7.93;4.50;;;1.40;99.90;;;;;;5010035;28;20052;-61
2022/04/11 03:09:23;;;;;;;8.52;4.85;;;1.70;99.90;;;;;;5010047;28;20038;-61
2022/04/11 03:11:49;;;;;;;8.13;4.75;;;;;;;;;;5009739;28;20042;-61
2022/04/11 03:14:15;;;;;;;10.82;4.95;;;;;;;;;;5010156;28;20061;-61
2022/04/11 03:16:41;;;;;;;9.02;4.70;;;;;;;;;;5009418;28;20497;-61
2022/04/11 03:19:08;;;;;;;8.05;4.68;;;1.50;99.90;;;;;;5009774;28;20108;-61
2022/04/11 03:21:34;;;;;;;11.55;4.80;;;1.70;99.90;;;;;;5009711;28;20050;-61
2022/04/11 03:24:00;;;;;;;10.07;4.47;;;;;;;;;;5010074;28;20111;-61
2022/04/11 03:26:26;;;;;;;10.50;4.53;;;;;;;;;;5009297;28;20528;-61
2022/04/11 03:28:52;;;;;;;9.20;4.80;;;1.40;99.90;;;;;;4992666;28;20112;-61
2022/04/11 03:31:18;;;;;;;9.98;4.80;;;;;;;;;;5009307;28;20425;-61
2022/04/11 03:33:44;;;;;;;10.23;5.00;;;;;;;;;;5010371;28;20045;-61
2022/04/11 03:36:10;;;;;;;9.55;5.20;;;1.60;99.90;;;;;;4991803;28;20116;-61
2022/04/11 03:38:36;;;;;;;10.63;5.10;;;1.60;99.90;;;;;;5009987;28;20888;-61
2022/04/11 03:41:02;;;;;;;8.73;4.70;;;;;;;;;;5009486;28;20456;-61
2022/04/11 03:43:28;;;;;;;8.27;5.03;;;0.80;99.90;;;;;;5009556;28;20346;-61
2022/04/11 03:45:54;;;;;;;7.72;4.93;;;;;;;;;;5009101;28;20092;-61
2022/04/11 03:48:20;;;;;;;8.50;4.95;;;;;;;;;;5009243;28;20053;-61
2022/04/11 03:50:46;;;;;;;12.85;5.80;;;2.00;99.90;;;;;;4991830;28;20054;-61
2022/04/11 03:53:13;;;;;;;16.42;6.05;;;;;;;;;;5009340;28;20176;-61
2022/04/11 03:55:39;;;;;;;11.13;5.75;;;;;;;;;;5009677;28;20120;-61
2022/04/11 03:58:05;;;;;;;11.10;5.50;;;;;;;;;;4992548;28;20212;-61
2022/04/11 04:00:31;;;;;;;11.00;5.60;;;;;;;;;;5010150;28;20137;-61
2022/04/11 04:03:11;;;;;;;10.63;5.32;;;1.30;99.90;;;;;;5012690;28;20136;-61
2022/04/11 04:05:44;;;;;;;10.57;5.80;;;1.30;99.90;;;;;;4994988;28;20172;-61
2022/04/11 04:08:10;;;;;;;10.68;6.22;;;1.50;99.90;;;;;;5011742;28;20053;-61
2022/04/11 04:10:36;;;;;;;12.07;5.30;;;1.30;99.90;;;;;;5013066;28;20477;-61
2022/04/11 04:13:03;;;;;;;15.32;5.93;;;;;;;;;;5012600;28;20050;-61
2022/04/11 04:15:29;;;;;;;11.85;5.55;;;;;;;;;;5012702;28;20105;-61
2022/04/11 04:17:55;;;;;;;11.38;5.75;;;1.40;99.90;;;;;;5012846;28;20061;-61
2022/04/11 04:20:23;;;;;;;17.15;6.38;;;1.50;99.90;;;;;;4995285;28;20049;-61
2022/04/11 04:22:49;;;;;;;8.70;5.32;;;;;;;;;;5012908;28;20504;-61
2022/04/11 04:25:15;;;;;;;13.90;5.78;;;;;;;;;;5012190;28;20054;-61
2022/04/11 04:27:41;;;;;;;13.80;6.00;;;1.60;99.90;;;;;;5012164;28;20160;-61
2022/04/11 04:30:07;;;;;;;12.93;6.15;;;1.70;99.90;;;;;;4995207;28;20572;-61
2022/04/11 04:32:33;;;;;;;11.80;6.00;;;;;;;;;;5011976;28;20057;-61
2022/04/11 04:35:00;;;;;;;12.98;6.22;;;1.80;99.90;;;;;;5012925;28;20482;-61
2022/04/11 04:37:26;;;;;;;10.27;6.20;;;1.80;99.90;;;;;;5012101;28;20050;-61
2022/04/11 04:39:52;;;;;;;13.13;6.07;;;;;;;;;;5012353;28;20421;-60
2022/04/11 04:42:21;;;;;;;11.35;6.25;;;1.80;99.90;;;;;;5011227;28;20096;-62
2022/04/11 04:44:47;;;;;;;12.35;5.63;;;;;;;;;;5012392;28;20092;-61
2022/04/11 04:47:15;;;;;;;16.75;6.05;;;;;;;;;;5011264;28;20041;-61
2022/04/11 04:49:42;;;;;;;15.02;6.40;;;2.10;99.90;;;;;;5012387;28;20046;-61
2022/04/11 04:52:08;;;;;;;9.75;6.20;;;1.80;99.90;;;;;;5011716;28;20041;-61
2022/04/11 04:54:34;;;;;;;13.10;6.10;;;2.20;99.90;;;;;;4994433;28;20060;-61
2022/04/11 04:57:00;;;;;;;15.25;5.95;;;;;;;;;;4993987;28;20053;-61
2022/04/11 04:59:26;;;;;;;12.50;6.10;;;2.00;99.90;;;;;;5011634;28;20054;-61
2022/04/11 05:01:52;;;;;;;10.55;5.88;;;;;;;;;;5011698;28;20131;-61
2022/04/11 05:04:18;;;;;;;10.48;6.63;;;;;;;;;;5011241;28;20417;-61
2022/04/11 05:06:44;;;;;;;16.85;6.55;;;3.10;99.90;;;;;;5011685;28;20045;-61
2022/04/11 05:09:10;;;;;;;12.07;6.35;;;;;;;;;;5011468;28;20038;-61
2022/04/11 05:11:36;;;;;;;14.43;6.60;;;;;;;;;;5010456;28;20046;-61
2022/04/11 05:14:02;;;;;;;11.98;7.05;;;;;;;;;;5011413;28;20508;-61
2022/04/11 05:16:28;;;;;;;9.55;6.70;;;;;;;;;;5011129;28;20183;-62
2022/04/11 05:18:54;;;;;;;13.00;7.20;;;;;;;;;;5011592;28;20097;-61
2022/04/11 05:21:20;;;;;;;11.57;6.70;;;;;;;;;;5011041;28;20144;-61
2022/04/11 05:23:46;;;;;;;12.40;7.05;;;2.70;99.90;;;;;;5011582;28;20049;-61
2022/04/11 05:26:12;;;;;;;13.85;7.32;;;3.60;99.90;;;;;;5010651;28;20054;-61
2022/04/11 05:28:38;;;;;;;10.73;6.95;;;;;;;;;;4993509;28;20453;-61
2022/04/11 05:31:04;;;;;;;14.57;7.70;;;;;;;;;;5011636;28;20081;-61
2022/04/11 05:33:29;;;;;;;14.32;7.57;;;2.70;99.90;;;;;;5011214;28;20048;-61
2022/04/11 05:35:58;;;;;;;26.23;8.05;;;;;;;;;;5011260;28;20061;-61
2022/04/11 05:38:24;;;;;;;15.00;7.20;;;;;;;;;;5010897;28;20050;-61
2022/04/11 05:40:50;;;;;;;14.60;7.28;;;3.80;99.90;;;;;;5011313;28;20053;-61
2022/04/11 05:43:16;;;;;;;14.85;7.00;;;;;;;;;;5011211;28;20462;-61
2022/04/11 05:45:43;;;;;;;15.00;7.65;;;;;;;;;;5011012;28;20112;-61
2022/04/11 05:48:09;;;;;;;16.80;7.85;;;;;;;;;;4993423;28;20077;-61
2022/04/11 05:50:35;;;;;;;11.82;7.35;;;;;;;;;;5010989;28;20053;-61
2022/04/11 05:53:04;;;;;;;12.50;7.93;;;3.70;99.90;;;;;;5010788;28;20088;-61
2022/04/11 05:55:30;;;;;;;12.05;7.40;;;;;;;;;;5010264;28;20506;-61
2022/04/11 05:57:56;;;;;;;14.98;7.60;;;;;;;;;;5011024;28;20486;-61
2022/04/11 06:00:22;;;;;;;17.80;7.95;;;3.50;99.90;;;;;;5010205;28;20042;-61
2022/04/11 06:02:48;;;;;;;15.05;7.90;;;3.10;99.90;;;;;;5010981;28;20080;-61
2022/04/11 06:05:14;;;;;;;22.00;7.95;;;;;;;;;;5010377;28;20111;-61
2022/04/11 06:07:41;;;;;;;12.70;7.47;;;;;;;;;;5010542;28;20081;-61
2022/04/11 06:10:08;;;;;;;12.57;7.43;;;3.50;99.90;;;;;;5010294;28;20049;-61
2022/04/11 06:12:34;;;;;;;15.75;7.40;;;3.50;99.90;;;;;;5010884;28;20129;-61
2022/04/11 06:15:00;;;;;;;13.38;7.43;;;;;;;;;;5010626;28;20485;-61
2022/04/11 06:17:26;;;;;;;14.07;7.47;;;3.60;99.90;;;;;;5009892;28;20049;-61
2022/04/11 06:19:53;;;;;;;17.77;7.82;;;3.20;99.90;;;;;;5010496;28;20056;-61
2022/04/11 06:22:20;;;;;;;14.85;7.40;;;;;;;;;;5010281;28;20066;-61
2022/04/11 06:24:47;;;;;;;14.95;6.97;;;2.90;99.90;;;;;;5009973;28;20045;-61
2022/04/11 06:27:13;;;;;;;15.75;7.15;;;;;;;;;;4993000;28;20573;-61
2022/04/11 06:29:39;;;;;;;19.80;7.35;;;;;;;;;;4976607;28;20081;-61
2022/04/11 06:32:05;;;;;;;22.38;7.72;;;;;;;;;;5010510;28;20077;-62
2022/04/11 06:34:32;;;;;;;26.60;8.13;;;;;;;;;;4992669;28;20060;-61
2022/04/11 06:36:57;;;;;;;14.98;7.13;;;4.20;99.90;;;;;;4992504;28;20050;-62
2022/04/11 06:39:23;;;;;;;16.67;6.50;;;4.50;99.90;;;;;;5010287;28;20422;-61
2022/04/11 06:41:49;;;;;;;11.68;6.78;;;;;;;;;;5010436;28;20070;-62
2022/04/11 06:44:15;;;;;;;15.93;6.70;;;;;;;;;;5003029;28;20413;-62
2022/04/11 06:46:41;;;;;;;12.00;5.90;;;;;;;;;;4997127;28;20392;-62
2022/04/11 06:49:07;;;;;;;17.33;5.90;;;;;;;;;;5009610;28;20084;-62
2022/04/11 06:51:34;;;;;;;9.57;5.70;;;;;;;;;;4997133;28;20093;-61
2022/04/11 06:54:00;;;;;;;14.95;6.05;;;;;;;;;;4997910;28;20425;-61
2022/04/11 06:56:26;;;;;;;12.13;5.80;;;;;;;;;;5001837;28;20572;-62
2022/04/11 06:58:52;;;;;;;14.20;6.18;;;;;;;;;;5001851;28;20379;-61
2022/04/11 07:01:18;;;;;;;10.25;6.22;;;;;;;;;;4998396;28;20546;-62
2022/04/11 07:03:44;;;;;;;14.77;6.00;;;;;;;;;;5000909;28;20156;-61
2022/04/11 07:06:10;;;;;;;14.48;5.75;;;7.50;99.90;;;;;;5009494;28;20050;-62
2022/04/11 07:08:36;;;;;;;10.77;5.95;;;;;;;;;;5009406;28;20046;-62
2022/04/11 07:11:04;;;;;;;10.05;5.50;;;7.30;99.90;;;;;;5009110;28;20054;-63
2022/04/11 07:13:30;;;;;;;13.18;6.10;;;6.90;99.90;;;;;;5009864;28;20042;-61
2022/04/11 07:15:56;;;;;;;12.65;6.20;;;;;;;;;;5006263;28;20112;-61
2022/04/11 07:18:27;;;;;;;12.85;5.82;;;;;;;;;;5009080;28;20528;-61
2022/04/11 07:20:53;;;;;;;10.35;6.15;;;;;;;;;;5009068;28;20650;-62
2022/04/11 07:23:19;;;;;;;11.98;6.18;;;;;;;;;;4991172;28;20050;-61
2022/04/11 07:25:45;;;;;;;13.10;6.30;;;6.50;99.90;;;;;;5008886;28;20050;-62
2022/04/11 07:28:12;;;;;;;11.43;6.40;;;;;;;;;;4991579;28;20053;-62
2022/04/11 07:30:39;;;;;;;11.65;6.82;;;;;;;;;;5008218;28;20378;-62
2022/04/11 07:33:05;;;;;;;9.80;6.50;;;;;;;;;;5008545;28;20125;-61
2022/04/11 07:35:31;;;;;;;13.52;6.47;;;;;;;;;;5010305;28;20053;-61
2022/04/11 07:37:57;;;;;;;10.52;6.13;;;7.00;99.90;;;;;;5012741;28;20113;-62
2022/04/11 07:40:25;;;;;;;13.35;6.50;;;6.60;99.90;;;;;;5012389;28;20497;-62
2022/04/11 07:42:51;;;;;;;11.75;6.35;;;;;;;;;;5012393;28;20441;-62
2022/04/11 07:45:18;;;;;;;12.43;6.60;;;6.90;99.90;;;;;;5012013;28;20053;-62
2022/04/11 07:47:44;;;;;;;10.30;6.70;;;;;;;;;;5011146;28;20050;-61
2022/04/11 07:50:10;;;;;;;13.73;6.88;;;7.30;99.90;;;;;;5012678;28;20086;-62
2022/04/11 07:52:40;;;;;;;10.35;6.47;;;7.00;99.90;;;;;;5012400;28;20077;-62
2022/04/11 07:55:07;;;;;;;14.63;6.70;;;7.20;99.90;;;;;;5012644;28;20109;-62
2022/04/11 07:57:33;;;;;;;9.95;6.30;;;;;;;;;;5012802;28;20128;-62
2022/04/11 07:59:59;;;;;;;11.88;6.50;;;;;;;;;;4994239;28;20453;-62
2022/04/11 08:02:25;;;;;;;9.50;6.30;;;6.90;99.90;;;;;;5004839;28;20437;-62
2022/04/11 08:04:52;;;;;;;11.73;6.38;;;7.50;99.90;;;;;;5010746;28;20050;-62
2022/04/11 08:07:19;;;;;;;15.10;7.10;;;7.20;99.90;;;;;;4994408;28;20152;-62
2022/04/11 08:09:45;;;;;;;10.95;6.53;;;;;;;;;;5012419;28;20104;-62
2022/04/11 08:12:11;;;;;;;10.32;7.03;;;;;;;;;;4968249;28;20482;-62
2022/04/11 08:14:37;;;;;;;12.68;6.40;;;;;;;;;;5010971;28;20493;-62
2022/04/11 08:17:03;;;;;;;14.10;6.82;;;;;;;;;;5012230;28;20084;-62
2022/04/11 08:19:32;;;;;;;11.43;6.70;;;7.90;99.90;;;;;;5012120;28;20042;-62
2022/04/11 08:21:58;;;;;;;12.30;6.50;;;;;;;;;;5011407;28;20401;-62
2022/04/11 08:24:24;;;;;;;11.30;6.57;;;8.60;99.90;;;;;;5011789;28;20486;-62
2022/04/11 08:26:50;;;;;;;10.30;6.50;;;;;;;;;;5011442;28;20046;-62
2022/04/11 08:29:17;;;;;;;11.88;5.85;;;8.90;99.90;;;;;;5011007;28;20056;-62
2022/04/11 08:31:44;;;;;;;10.80;6.15;;;;;;;;;;5011426;28;20092;-62
2022/04/11 08:34:09;;;;;;;11.63;6.10;;;9.30;99.90;;;;;;5011689;28;20056;-62
2022/04/11 08:36:35;;;;;;;11.65;6.22;;;9.70;99.90;;;;;;5011477;28;20049;-62
2022/04/11 08:39:01;;;;;;;11.68;6.20;;;;;;;;;;5011772;28;20045;-62
2022/04/11 08:41:36;;;;;;;13.30;5.97;;;10.00;99.90;;;;;;5011422;28;20050;-62
2022/04/11 08:44:05;;;;;;;13.65;6.70;;;10.30;99.90;;;;;;5010419;28;20057;-62
2022/04/11 08:46:33;;;;;;;13.48;6.20;;;10.50;99.90;;;;;;5011142;28;20054;-62
2022/04/11 08:49:03;;;;;;;9.20;6.22;;;10.20;99.90;;;;;;4993629;28;20453;-62
2022/04/11 08:51:33;;;;;;;14.45;6.07;;;11.10;99.90;;;;;;4978595;28;20058;-63
2022/04/11 08:54:01;;;;;;;13.27;5.82;;;11.40;99.90;;;;;;5011192;28;20038;-63
2022/04/11 08:56:28;;;;;;;11.88;5.72;;;11.80;99.90;;;;;;4993559;28;20057;-63
2022/04/11 08:58:54;;;;;;;8.65;5.53;;;11.60;99.90;;;;;;5010476;28;20076;-63
2022/04/11 09:01:20;;;;;;;9.80;5.30;;;12.00;99.90;;;;;;4993407;28;20062;-63
2022/04/11 09:03:47;;;;;;;11.45;5.68;;;12.30;99.90;;;;;;4984109;28;20478;-63
2022/04/11 09:06:16;;;;;;;8.70;5.28;;;12.10;99.90;;;;;;4991272;28;20133;-63
2022/04/11 09:08:42;;;;;;;9.73;4.65;;;;;;;;;;4991890;28;20082;-63
2022/04/11 09:11:09;;;;;;;10.80;5.00;;;11.90;99.80;;;;;;4973908;28;20097;-63
2022/04/11 09:13:51;;;;;;;11.30;4.90;;;12.10;92.80;;;;;;4989407;28;20057;-63
2022/04/11 09:16:18;;;;;;;11.38;5.28;;;12.40;92.20;;;;;;4973764;28;20108;-63
2022/04/11 09:18:52;;;;;;;11.23;5.00;;;12.00;98.20;;;;;;4991948;28;20362;-61
2022/04/11 09:21:18;;;;;;;10.05;5.80;;;12.30;90.50;;;;;;4973582;28;20486;-61
2022/04/11 09:23:44;;;;;;;13.95;6.00;;;12.30;96.40;;;;;;4973644;28;20046;-62
2022/04/11 09:26:21;;;;;;;13.25;7.15;;;12.50;90.20;;;;;;4990798;28;20053;-62
2022/04/11 09:29:00;;;;;;;13.48;6.45;;;12.90;92.40;;;;;;4989256;28;20047;-62
2022/04/11 09:31:26;;;;;;;13.90;7.30;;;13.00;98.10;;;;;;4957701;28;20072;-62
2022/04/11 09:33:52;;;;;;;17.20;6.80;;;13.20;94.90;;;;;;5009147;28;20053;-62
2022/04/11 09:36:20;;;;;;;10.95;5.88;;;13.10;95.50;;;;;;4992725;28;20084;-61
2022/04/11 09:38:59;;;;;;;11.60;6.10;;;13.40;86.50;;;;;;4992450;28;20517;-62
2022/04/11 09:41:34;;;;;;;12.50;6.70;;;13.40;86.80;;;;;;5010238;28;20046;-62
2022/04/11 09:44:20;;;;;;;10.65;6.20;;;13.10;95.50;;;;;;4991998;28;20049;-62
2022/04/11 09:46:45;;;;;;;9.57;5.60;;;13.60;95.40;;;;;;5008285;28;20050;-62
2022/04/11 09:49:12;;;;;;;10.93;6.38;;;;;;;;;;5010205;28;20050;-62
2022/04/11 09:51:57;;;;;;;10.60;5.53;;;13.20;91.40;;;;;;5010193;28;20050;-65
2022/04/11 09:54:26;;;;;;;8.43;5.40;;;13.60;90.00;;;;;;5010077;28;20381;-62
2022/04/11 09:56:53;;;;;;;10.68;5.63;;;13.50;74.50;;;;;;5010122;28;20131;-64
2022/04/11 09:59:23;;;;;;;12.00;5.80;;;13.80;89.30;;;;;;5008842;28;20096;-62
2022/04/11 10:01:51;;;;;;;9.65;5.70;;;13.80;73.80;;;;;;5007434;28;20072;-62
2022/04/11 10:04:21;;;;;;;10.13;5.57;;;13.90;74.90;;;;;;5002908;28;20050;-62
2022/04/11 10:06:48;;;;;;;9.88;5.57;;;14.20;87.50;;;;;;4975696;28;20058;-62
2022/04/11 10:09:15;;;;;;;10.77;6.20;;;14.10;82.80;;;;;;5009775;28;20046;-62
2022/04/11 10:11:42;;;;;;;10.07;5.82;;;13.80;66.10;;;;;;5009568;28;20486;-62
2022/04/11 10:14:13;;;;;;;11.18;5.68;;;14.10;66.30;;;;;;5008832;28;20438;-62
2022/04/11 10:16:43;;;;;;;9.32;6.07;;;13.70;78.40;;;;;;5009316;28;20449;-62
2022/04/11 10:19:13;;;;;;;8.85;5.80;;;13.40;62.80;;;;;;5009873;28;20050;-62
2022/04/11 10:21:44;;;;;;;10.77;6.40;;;13.50;63.30;;;;;;5009456;28;20053;-62
2022/04/11 10:24:33;;;;;;;10.57;6.07;;;13.60;80.40;;;;;;5008512;28;20402;-62
2022/04/11 10:27:16;;;;;;;9.43;6.03;;;13.50;80.40;;;;;;4991792;28;20049;-62
2022/04/11 10:29:42;;;;;;;11.00;6.22;;;;;;;;;;5008134;28;20405;-63
2022/04/11 10:32:19;;;;;;;10.38;6.30;;;14.00;64.00;;;;;;5009475;28;20214;-63
2022/04/11 10:35:02;;;;;;;10.77;6.45;;;13.70;70.10;;;;;;5009683;28;20363;-63
2022/04/11 10:37:49;;;;;;;12.07;6.90;;;14.20;67.10;;;;;;5009011;28;20042;-63
2022/04/11 10:40:17;;;;;;;11.10;6.07;;;14.30;75.30;;;;;;5009172;28;20391;-63
2022/04/11 10:43:01;;;;;;;11.00;6.60;;;14.20;75.60;;;;;;5008241;28;20046;-63
2022/04/11 10:45:41;;;;;;;11.18;6.72;;;14.20;75.80;;;;;;4991415;28;20060;-63
2022/04/11 10:48:11;;;;;;;15.80;6.70;;;14.40;61.90;;;;;;5009311;28;20588;-63
2022/04/11 10:50:38;;;;;;;12.10;6.38;;;14.50;61.20;;;;;;4991226;28;20053;-63
2022/04/11 10:53:07;;;;;;;9.07;6.07;;;14.60;74.70;;;;;;5008721;28;20125;-63
2022/04/11 10:55:33;;;;;;;12.05;6.63;;;15.10;71.30;;;;;;5009420;28;20121;-63
2022/04/11 10:58:02;;;;;;;10.63;7.00;;;;;;;;;;5006869;28;20565;-63
2022/04/11 11:00:28;;;;;;;11.25;7.07;;;;;;;;;;5008751;28;20049;-63
2022/04/11 11:02:56;;;;;;;12.88;6.90;;;;;;;;;;5006294;28;20072;-63
2022/04/11 11:05:27;;;;;;;11.60;7.20;;;14.80;67.10;;;;;;4989134;28;20061;-63
2022/04/11 11:08:12;;;;;;;13.32;7.05;;;14.80;59.30;;;;;;4971845;28;20092;-63
2022/04/11 11:10:49;;;;;;;11.88;6.78;;;14.70;72.80;;;;;;4991330;28;20078;-63
2022/04/11 11:13:40;;;;;;;13.70;7.45;;;14.70;59.80;;;;;;4992420;28;20050;-80
2022/04/11 11:16:11;;;;;;;12.27;7.30;;;14.80;60.20;;;;;;4993444;28;20054;-79
2022/04/11 11:18:49;;;;;;;11.40;6.88;;;15.30;68.10;;;;;;4993279;28;20077;-80
2022/04/11 11:21:28;;;;;;;13.48;7.00;;;14.90;71.20;;;;;;4993334;28;20061;-79
2022/04/11 11:24:03;;;;;;;12.43;7.30;;;15.00;67.10;;;;;;4975617;28;20050;-80
2022/04/11 11:26:45;;;;;;;13.27;7.50;;;14.80;58.00;;;;;;4975729;28;20050;-81
2022/04/11 11:29:40;;;;;;;12.23;7.47;;;14.80;62.30;;;;;;4974300;28;20042;-78
2022/04/11 11:32:08;;;;;;;11.80;7.45;;;15.10;74.00;;;;;;4979145;28;20078;-81
2022/04/11 11:34:38;;;;;;;14.98;7.32;;;14.90;57.90;;;;;;5012550;28;20133;-80
2022/04/11 11:37:05;;;;;;;13.23;7.63;;;;;;;;;;5012969;28;20049;-81
2022/04/11 11:39:32;;;;;;;12.88;7.80;;;14.80;61.10;;;;;;4995721;28;20389;-80
2022/04/11 11:42:07;;;;;;;11.85;7.25;;;15.10;57.40;;;;;;5011429;28;20129;-81
2022/04/11 11:44:42;;;;;;;11.30;7.93;;;15.00;56.40;;;;;;5014139;28;20190;-80
2022/04/11 11:47:09;;;;;;;14.35;8.02;;;;;;;;;;5012713;28;20286;-81
2022/04/11 11:49:59;;;;;;;16.10;8.43;;;15.00;70.60;;;;;;4995347;28;20125;-80
2022/04/11 11:52:25;;;;;;;10.57;7.90;;;15.10;71.00;;;;;;5012598;28;20057;-81
2022/04/11 11:54:55;;;;;;;11.65;7.80;;;15.00;55.40;;;;;;4995001;28;20057;-81
2022/04/11 11:57:24;;;;;;;13.73;7.70;;;15.10;58.80;;;;;;5010861;28;20045;-80
2022/04/11 11:59:59;;;;;;;13.02;8.27;;;15.60;60.70;;;;;;5011850;28;20056;-81
2022/04/11 12:05:20;;;;;;;12.82;7.72;;;15.50;56.90;;;;;;5012509;28;20116;-84
2022/04/11 12:07:51;;;;;;;11.77;8.10;;;15.60;56.10;;;;;;5012406;28;20592;-83
2022/04/11 12:10:18;;;;;;;12.65;8.32;;;15.60;55.90;;;;;;4991550;28;20124;-83
2022/04/11 12:12:46;;;;;;;13.40;8.00;;;15.80;55.80;;;;;;4991754;28;20052;-81
2022/04/11 12:15:13;;;;;;;12.07;8.13;;;15.20;62.10;;;;;;4994050;28;20053;-81
2022/04/11 12:17:45;;;;;;;14.65;8.18;;;15.80;55.90;;;;;;4993720;28;20053;-81
2022/04/11 12:20:21;;;;;;;14.43;8.07;;;15.90;70.90;;;;;;4992702;28;20054;-81
2022/04/11 12:23:04;;;;;;;12.65;8.13;;;16.60;58.30;;;;;;4993085;28;20065;-86
2022/04/11 12:25:35;;;;;;;11.85;8.10;;;16.00;56.00;;;;;;4995753;28;20116;-86
2022/04/11 12:28:12;;;;;;;15.10;8.73;;;14.30;54.50;;;;;;4982361;28;20076;-85
2022/04/11 12:30:41;;;;;;;13.50;7.63;;;16.20;55.10;;;;;;4995499;28;20054;-83
2022/04/11 12:33:07;;;;;;;11.50;7.88;;;;;;;;;;4982569;28;20117;-85
2022/04/11 12:35:35;;;;;;;14.07;7.57;;;15.90;70.00;;;;;;5020559;28;20050;-85
2022/04/11 12:38:07;;;;;;;10.55;7.70;;;;;;;;;;5016476;28;20050;-85
2022/04/11 12:40:45;;;;;;;12.68;7.70;;;15.90;56.50;;;;;;4987791;28;20072;-86
2022/04/11 12:43:14;;;;;;;12.68;7.63;;;16.40;54.70;;;;;;5006111;28;20105;-85
2022/04/11 12:45:40;;;;;;;12.07;8.05;;;16.40;63.30;;;;;;5015867;28;20045;-86
2022/04/11 12:48:08;;;;;;;15.80;8.93;;;16.30;58.70;;;;;;5013111;28;20042;-86
2022/04/11 12:50:36;;;;;;;12.52;8.00;;;16.40;54.00;;;;;;5012868;28;20057;-85
2022/04/11 12:53:03;;;;;;;16.20;8.65;;;16.30;57.50;;;;;;5013189;28;20524;-87
2022/04/11 12:55:31;;;;;;;13.65;8.48;;;15.60;57.20;;;;;;5012317;28;20393;-85
2022/04/11 12:58:04;;;;;;;14.88;8.32;;;16.40;54.70;;;;;;5010174;28;20060;-86
2022/04/11 13:00:31;;;;;;;13.55;8.65;;;16.50;73.80;;;;;;4995390;28;20054;-86
2022/04/11 13:02:56;;;;;;;14.90;7.95;;;16.50;70.00;;;;;;5012641;28;20413;-87
2022/04/11 13:05:24;;;;;;;13.68;8.10;;;16.30;53.70;;;;;;4994911;28;20050;-85
2022/04/11 13:07:50;;;;;;;14.45;8.18;;;;;;;;;;4995510;28;20050;-88
2022/04/11 13:10:19;;;;;;;12.88;8.52;;;16.50;71.70;;;;;;5012738;28;20100;-87
2022/04/11 13:12:45;;;;;;;13.82;8.50;;;16.60;70.10;;;;;;4978177;28;20073;-83
2022/04/11 13:15:11;;;;;;;12.65;8.57;;;;;;;;;;4995519;28;20161;-88
2022/04/11 13:20:26;;;;;;;12.75;8.70;;;16.50;56.60;;;;;;4994689;28;20378;-86
2022/04/11 13:22:53;;;;;;;14.63;8.73;;;16.20;70.20;;;;;;5011717;28;20049;-87
2022/04/11 13:25:20;;;;;;;14.73;8.63;;;16.50;70.40;;;;;;5010941;28;20440;-86
2022/04/11 13:27:46;;;;;;;12.77;8.40;;;16.60;53.30;;;;;;5010430;28;20049;-86
2022/04/11 13:30:13;;;;;;;17.15;8.75;;;16.80;70.40;;;;;;5012118;28;20502;-88
2022/04/11 13:32:39;;;;;;;11.38;8.52;;;;;;;;;;4984474;28;20050;-83